createdAt,value
2023-04-17T00:01:05.758Z,88.17
2023-04-17T00:03:38.842Z,88.30
2023-04-17T00:06:13.942Z,88.30
2023-04-17T00:08:46.897Z,88.41
2023-04-17T00:11:20.859Z,88.37
2023-04-17T00:13:55.141Z,88.42
2023-04-17T00:16:29.603Z,88.30
2023-04-17T00:19:02.717Z,88.30
2023-04-17T00:21:33.640Z,88.24
2023-04-17T00:24:06.563Z,88.25
2023-04-17T00:26:38.824Z,88.39
2023-04-17T00:29:11.104Z,88.24
2023-04-17T00:31:44.067Z,88.15
2023-04-17T00:34:17.686Z,88.25
2023-04-17T00:36:49.311Z,88.25
2023-04-17T00:39:21.977Z,88.17
2023-04-17T00:41:56.642Z,88.38
2023-04-17T00:44:30.891Z,88.49
2023-04-17T00:47:04.539Z,88.51
2023-04-17T00:49:37.612Z,88.54
2023-04-17T00:52:11.582Z,88.46
2023-04-17T00:54:47.370Z,88.16
2023-04-17T00:57:19.585Z,88.28
2023-04-17T00:59:53.605Z,88.46
2023-04-17T01:02:25.758Z,88.49
2023-04-17T01:05:00.541Z,88.64
2023-04-17T01:07:32.862Z,88.69
2023-04-17T01:10:07.292Z,88.77
2023-04-17T01:12:42.132Z,88.71
2023-04-17T01:15:15.680Z,88.72
2023-04-17T01:17:46.735Z,88.89
2023-04-17T01:20:17.992Z,88.51
2023-04-17T01:22:52.613Z,88.55
2023-04-17T01:25:24.469Z,88.24
2023-04-17T01:27:55.684Z,88.26
2023-04-17T01:30:27.434Z,88.13
2023-04-17T01:33:13.448Z,88.13
2023-04-17T01:36:05.803Z,88.24
2023-04-17T01:38:42.107Z,88.09
2023-04-17T01:41:14.890Z,88.30
2023-04-17T01:43:50.161Z,88.08
2023-04-17T01:46:23.602Z,88.29
2023-04-17T01:48:55.648Z,88.25
2023-04-17T01:51:28.593Z,88.09
2023-04-17T01:54:03.326Z,88.00
2023-04-17T01:56:36.631Z,87.78
2023-04-17T01:59:09.430Z,87.81
2023-04-17T02:01:46.121Z,87.79
2023-04-17T02:04:17.089Z,87.95
2023-04-17T02:06:48.938Z,87.93
2023-04-17T02:09:21.681Z,88.00
2023-04-17T02:11:55.819Z,88.37
2023-04-17T02:14:27.820Z,88.27
2023-04-17T02:17:04.847Z,88.26
2023-04-17T02:19:40.094Z,88.19
2023-04-17T02:22:18.887Z,88.22
2023-04-17T02:24:51.602Z,88.21
2023-04-17T02:27:26.849Z,88.49
2023-04-17T02:30:19.764Z,88.71
2023-04-17T02:32:52.779Z,88.85
2023-04-17T02:35:27.747Z,88.88
2023-04-17T02:38:02.431Z,88.60
2023-04-17T02:40:34.991Z,88.94
2023-04-17T02:43:06.456Z,88.78
2023-04-17T02:45:41.588Z,88.78
2023-04-17T02:48:24.003Z,89.19
2023-04-17T02:50:56.286Z,89.11
2023-04-17T02:53:29.388Z,89.28
2023-04-17T02:56:03.013Z,89.31
2023-04-17T02:58:36.954Z,89.40
2023-04-17T03:01:11.007Z,89.41
2023-04-17T03:03:48.089Z,89.68
2023-04-17T03:06:25.666Z,89.42
2023-04-17T03:08:57.156Z,89.27
2023-04-17T03:11:30.928Z,89.31
2023-04-17T03:14:02.585Z,89.30
2023-04-17T03:16:36.530Z,89.36
2023-04-17T03:19:09.225Z,89.35
2023-04-17T03:21:46.106Z,89.38
2023-04-17T03:24:18.941Z,89.75
2023-04-17T03:26:52.937Z,89.60
2023-04-17T03:29:24.899Z,89.67
2023-04-17T03:31:58.241Z,89.39
2023-04-17T03:34:35.007Z,89.51
2023-04-17T03:37:06.519Z,89.62
2023-04-17T03:39:38.077Z,89.65
2023-04-17T03:42:13.989Z,89.65
2023-04-17T03:44:48.096Z,89.67
2023-04-17T03:47:21.759Z,89.80
2023-04-17T03:49:55.820Z,89.87
2023-04-17T03:52:30.745Z,90.12
2023-04-17T03:55:04.508Z,89.79
2023-04-17T03:57:45.988Z,89.82
2023-04-17T04:00:22.262Z,89.82
2023-04-17T04:02:58.010Z,89.81
2023-04-17T04:05:48.852Z,90.15
2023-04-17T04:08:22.755Z,90.04
2023-04-17T04:10:56.410Z,90.00
2023-04-17T04:13:36.365Z,90.41
2023-04-17T04:16:10.478Z,90.40
2023-04-17T04:18:49.078Z,90.21
2023-04-17T04:21:23.139Z,90.50
2023-04-17T04:23:56.737Z,90.44
2023-04-17T04:26:28.994Z,90.49
2023-04-17T04:29:12.719Z,90.71
2023-04-17T04:32:10.425Z,90.74
2023-04-17T04:34:46.752Z,90.91
2023-04-17T04:37:23.006Z,90.90
2023-04-17T04:40:02.395Z,90.95
2023-04-17T04:42:35.602Z,91.09
2023-04-17T04:45:25.330Z,91.13
2023-04-17T04:48:00.736Z,91.48
2023-04-17T04:50:34.414Z,91.44
2023-04-17T04:53:07.246Z,91.39
2023-04-17T04:56:06.944Z,91.57
2023-04-17T04:58:50.414Z,91.53
2023-04-17T05:01:24.145Z,91.50
2023-04-17T05:03:58.048Z,91.60
2023-04-17T05:06:33.683Z,91.41
2023-04-17T05:09:08.704Z,91.50
2023-04-17T05:11:41.115Z,91.65
2023-04-17T05:14:15.624Z,91.34
2023-04-17T05:16:48.330Z,91.42
2023-04-17T05:19:24.989Z,91.64
2023-04-17T05:22:07.419Z,91.38
2023-04-17T05:24:44.018Z,91.43
2023-04-17T05:27:16.011Z,91.23
2023-04-17T05:29:49.854Z,91.07
2023-04-17T05:32:24.732Z,90.95
2023-04-17T05:35:00.136Z,91.05
2023-04-17T05:37:32.033Z,90.97
2023-04-17T05:40:07.307Z,90.88
2023-04-17T05:42:39.325Z,90.91
2023-04-17T05:45:14.960Z,90.62
2023-04-17T05:47:48.049Z,90.60
2023-04-17T05:50:20.944Z,90.54
2023-04-17T05:52:53.082Z,90.20
2023-04-17T05:55:27.337Z,89.80
2023-04-17T05:58:10.422Z,89.79
2023-04-17T06:00:49.496Z,90.04
2023-04-17T06:03:25.302Z,89.98
2023-04-17T06:06:04.935Z,89.90
2023-04-17T06:08:37.990Z,89.74
2023-04-17T06:11:12.339Z,89.56
2023-04-17T06:13:44.446Z,89.32
2023-04-17T06:16:18.396Z,89.42
2023-04-17T06:18:52.598Z,89.54
2023-04-17T06:21:23.778Z,89.59
2023-04-17T06:23:58.571Z,89.42
2023-04-17T06:26:32.661Z,89.37
2023-04-17T06:29:04.559Z,89.26
2023-04-17T06:31:39.034Z,88.89
2023-04-17T06:34:12.462Z,88.92
2023-04-17T06:36:48.708Z,88.94
2023-04-17T06:39:21.749Z,89.10
2023-04-17T06:41:56.869Z,89.10
2023-04-17T06:44:32.033Z,88.98
2023-04-17T06:47:05.403Z,88.91
2023-04-17T06:49:36.824Z,88.86
2023-04-17T06:52:08.936Z,88.36
2023-04-17T06:54:41.267Z,88.19
2023-04-17T06:57:14.589Z,88.03
2023-04-17T06:59:47.898Z,87.80
2023-04-17T07:02:21.313Z,87.90
2023-04-17T07:04:54.352Z,87.81
2023-04-17T07:07:26.693Z,87.59
2023-04-17T07:09:59.084Z,87.44
2023-04-17T07:12:31.521Z,87.03
2023-04-17T07:15:03.735Z,86.94
2023-04-17T07:17:36.529Z,86.67
2023-04-17T07:20:12.956Z,86.60
2023-04-17T07:22:45.885Z,86.45
2023-04-17T07:25:19.298Z,85.78
2023-04-17T07:27:51.852Z,85.20
2023-04-17T07:30:26.071Z,85.41
2023-04-17T07:32:58.032Z,85.51
2023-04-17T07:35:34.720Z,85.16
2023-04-17T07:38:08.253Z,84.89
2023-04-17T07:40:40.474Z,84.46
2023-04-17T07:43:16.937Z,84.07
2023-04-17T07:45:53.432Z,83.62
2023-04-17T07:48:26.624Z,82.83
2023-04-17T07:51:01.493Z,82.80
2023-04-17T07:53:36.181Z,82.34
2023-04-17T07:56:11.201Z,82.19
2023-04-17T07:58:46.639Z,81.75
2023-04-17T08:01:23.085Z,81.52
2023-04-17T08:03:55.774Z,81.06
2023-04-17T08:06:30.776Z,81.38
2023-04-17T08:09:04.675Z,81.04
2023-04-17T08:11:53.359Z,80.59
2023-04-17T08:14:31.512Z,80.21
2023-04-17T08:17:04.480Z,79.80
2023-04-17T08:19:38.848Z,80.67
2023-04-17T08:22:21.566Z,79.68
2023-04-17T08:24:56.997Z,79.14
2023-04-17T08:27:28.848Z,79.45
2023-04-17T08:29:59.627Z,78.96
2023-04-17T08:32:34.220Z,78.24
2023-04-17T08:35:15.413Z,78.26
2023-04-17T08:37:48.573Z,78.02
2023-04-17T08:40:24.661Z,77.03
2023-04-17T08:42:58.161Z,76.31
2023-04-17T08:45:29.142Z,76.53
2023-04-17T08:48:02.614Z,76.18
2023-04-17T08:50:35.969Z,76.16
2023-04-17T08:53:09.347Z,75.69
2023-04-17T08:55:40.635Z,75.47
2023-04-17T08:58:15.224Z,75.29
2023-04-17T09:00:48.081Z,75.14
2023-04-17T09:03:20.386Z,74.82
2023-04-17T09:06:00.495Z,74.77
2023-04-17T09:08:34.282Z,74.25
2023-04-17T09:11:07.336Z,74.51
2023-04-17T09:13:47.614Z,73.95
2023-04-17T09:16:19.660Z,72.36
2023-04-17T09:18:52.794Z,73.17
2023-04-17T09:21:30.059Z,73.13
2023-04-17T09:24:02.795Z,73.01
2023-04-17T09:26:35.787Z,72.85
2023-04-17T09:29:10.849Z,72.83
2023-04-17T09:31:46.299Z,72.80
2023-04-17T09:34:21.823Z,72.15
2023-04-17T09:37:03.240Z,72.24
2023-04-17T09:39:58.347Z,71.39
2023-04-17T09:42:30.960Z,70.74
2023-04-17T09:45:24.885Z,70.75
2023-04-17T09:47:57.498Z,70.50
2023-04-17T09:50:28.815Z,69.93
2023-04-17T09:53:02.531Z,70.37
2023-04-17T09:55:37.752Z,70.47
2023-04-17T09:58:11.256Z,70.26
2023-04-17T10:00:44.718Z,69.78
2023-04-17T10:03:19.060Z,68.81
2023-04-17T10:05:53.164Z,68.96
2023-04-17T10:08:27.795Z,69.95
2023-04-17T10:11:07.531Z,69.83
2023-04-17T10:13:58.413Z,69.12
2023-04-17T10:16:39.478Z,69.59
2023-04-17T10:19:32.745Z,69.96
2023-04-17T10:22:42.909Z,69.72
2023-04-17T10:25:23.023Z,68.86
2023-04-17T10:28:46.771Z,69.62
2023-04-17T10:31:24.227Z,70.35
2023-04-17T10:33:59.054Z,70.95
2023-04-17T10:36:53.182Z,70.86
2023-04-17T10:39:24.535Z,71.51
2023-04-17T10:42:07.325Z,71.39
2023-04-17T10:44:40.042Z,70.95
2023-04-17T10:47:14.508Z,71.03
2023-04-17T10:49:56.268Z,71.11
2023-04-17T10:52:43.663Z,71.47
2023-04-17T10:55:21.994Z,71.41
2023-04-17T10:58:01.756Z,70.94
2023-04-17T11:00:37.559Z,71.08
2023-04-17T11:03:16.231Z,70.89
2023-04-17T11:05:52.900Z,70.52
2023-04-17T11:08:34.517Z,70.69
2023-04-17T11:11:11.922Z,71.06
2023-04-17T11:13:50.936Z,70.77
2023-04-17T11:16:23.601Z,70.76
2023-04-17T11:19:00.072Z,70.91
2023-04-17T11:21:33.468Z,70.47
2023-04-17T11:24:12.929Z,69.88
2023-04-17T11:26:49.470Z,70.01
2023-04-17T11:29:22.253Z,70.17
2023-04-17T11:31:56.889Z,69.78
2023-04-17T11:34:28.658Z,70.33
2023-04-17T11:37:03.314Z,69.66
2023-04-17T11:39:37.875Z,68.97
2023-04-17T11:42:08.956Z,69.68
2023-04-17T11:44:45.568Z,70.21
2023-04-17T11:47:20.916Z,69.65
2023-04-17T11:49:55.346Z,69.78
2023-04-17T11:52:29.840Z,69.85
2023-04-17T11:55:01.982Z,69.79
2023-04-17T11:57:43.668Z,70.11
2023-04-17T12:00:27.275Z,68.95
2023-04-17T12:03:02.092Z,69.32
2023-04-17T12:05:37.178Z,69.25
2023-04-17T12:08:10.384Z,69.59
2023-04-17T12:10:48.270Z,69.61
2023-04-17T12:13:21.811Z,70.07
2023-04-17T12:15:54.029Z,69.74
2023-04-17T12:18:28.302Z,69.52
2023-04-17T12:20:58.911Z,69.45
2023-04-17T12:23:33.013Z,69.40
2023-04-17T12:26:06.018Z,69.04
2023-04-17T12:28:39.585Z,68.66
2023-04-17T12:31:12.474Z,68.44
2023-04-17T12:33:42.471Z,68.55
2023-04-17T12:36:18.258Z,68.91
2023-04-17T12:38:55.361Z,69.36
2023-04-17T12:41:34.521Z,68.44
2023-04-17T12:44:11.912Z,69.14
2023-04-17T12:46:45.582Z,68.72
2023-04-17T12:49:23.812Z,69.41
2023-04-17T12:52:01.635Z,69.67
2023-04-17T12:54:41.461Z,69.50
2023-04-17T12:57:15.893Z,69.10
2023-04-17T12:59:47.645Z,68.57
2023-04-17T13:02:21.969Z,68.71
2023-04-17T13:04:57.208Z,68.49
2023-04-17T13:07:32.111Z,68.45
2023-04-17T13:10:04.016Z,68.75
2023-04-17T13:12:37.068Z,68.52
2023-04-17T13:15:14.955Z,67.12
2023-04-17T13:17:48.902Z,66.87
2023-04-17T13:20:20.860Z,67.44
2023-04-17T13:22:54.931Z,67.60
2023-04-17T13:25:27.445Z,67.61
2023-04-17T13:27:59.888Z,67.49
2023-04-17T13:30:32.856Z,67.77
2023-04-17T13:33:05.038Z,66.78
2023-04-17T13:35:37.357Z,67.17
2023-04-17T13:38:13.371Z,66.87
2023-04-17T13:40:46.034Z,66.96
2023-04-17T13:43:19.322Z,67.20
2023-04-17T13:45:57.361Z,67.42
2023-04-17T13:48:31.092Z,67.51
2023-04-17T13:51:12.394Z,67.51
2023-04-17T13:53:46.540Z,67.61
2023-04-17T13:56:17.809Z,68.02
2023-04-17T13:58:53.814Z,68.05
2023-04-17T14:01:27.048Z,67.35
2023-04-17T14:04:00.447Z,66.91
2023-04-17T14:06:33.708Z,67.19
2023-04-17T14:09:08.199Z,67.29
2023-04-17T14:11:41.245Z,67.16
2023-04-17T14:14:15.605Z,66.47
2023-04-17T14:16:48.048Z,67.20
2023-04-17T14:19:20.350Z,66.82
2023-04-17T14:22:04.218Z,67.54
2023-04-17T14:24:37.025Z,67.81
2023-04-17T14:27:09.853Z,67.71
2023-04-17T14:29:45.061Z,67.95
2023-04-17T14:32:34.726Z,67.86
2023-04-17T14:35:25.991Z,68.35
2023-04-17T14:38:17.597Z,68.45
2023-04-17T14:40:49.821Z,68.67
2023-04-17T14:43:21.685Z,68.37
2023-04-17T14:45:53.687Z,67.96
2023-04-17T14:48:26.771Z,68.62
2023-04-17T14:50:59.476Z,68.85
2023-04-17T14:53:32.591Z,68.90
2023-04-17T14:56:05.994Z,68.64
2023-04-17T14:58:39.371Z,68.82
2023-04-17T15:01:12.267Z,68.61
2023-04-17T15:03:48.462Z,68.42
2023-04-17T15:06:21.658Z,68.76
2023-04-17T15:08:53.262Z,68.75
2023-04-17T15:11:25.053Z,68.92
2023-04-17T15:13:56.777Z,69.26
2023-04-17T15:16:28.802Z,69.20
2023-04-17T15:19:01.521Z,68.85
2023-04-17T15:21:33.687Z,69.09
2023-04-17T15:24:06.094Z,69.01
2023-04-17T15:26:45.016Z,69.26
2023-04-17T15:29:17.262Z,69.40
2023-04-17T15:31:48.678Z,69.50
2023-04-17T15:34:22.907Z,69.42
2023-04-17T15:36:55.515Z,69.57
2023-04-17T15:39:27.432Z,69.51
2023-04-17T15:41:58.614Z,69.51
2023-04-17T15:44:31.034Z,69.71
2023-04-17T15:47:03.209Z,69.90
2023-04-17T15:49:35.636Z,70.28
2023-04-17T15:52:09.610Z,70.53
2023-04-17T15:54:42.313Z,70.17
2023-04-17T15:57:13.501Z,70.37
2023-04-17T15:59:45.869Z,70.38
2023-04-17T16:02:17.140Z,70.47
2023-04-17T16:04:48.970Z,70.76
2023-04-17T16:07:22.373Z,70.96
2023-04-17T16:09:55.729Z,71.15
2023-04-17T16:12:30.329Z,71.39
2023-04-17T16:15:02.796Z,71.38
2023-04-17T16:17:34.816Z,71.40
2023-04-17T16:20:08.452Z,71.67
2023-04-17T16:22:41.440Z,71.93
2023-04-17T16:25:16.955Z,72.14
2023-04-17T16:27:48.771Z,72.27
2023-04-17T16:30:22.129Z,72.68
2023-04-17T16:32:56.253Z,73.17
2023-04-17T16:35:30.185Z,73.46
2023-04-17T16:38:05.346Z,73.66
2023-04-17T16:40:38.645Z,73.88
2023-04-17T16:43:10.940Z,73.98
2023-04-17T16:45:43.265Z,74.33
2023-04-17T16:48:15.634Z,74.56
2023-04-17T16:50:48.699Z,74.72
2023-04-17T16:53:21.529Z,75.12
2023-04-17T16:55:54.449Z,75.26
2023-04-17T16:58:28.288Z,75.47
2023-04-17T17:00:59.030Z,75.68
2023-04-17T17:03:31.924Z,75.70
2023-04-17T17:06:04.597Z,75.91
2023-04-17T17:08:38.119Z,76.15
2023-04-17T17:11:11.451Z,76.52
2023-04-17T17:13:44.582Z,76.75
2023-04-17T17:16:19.204Z,77.02
2023-04-17T17:18:54.385Z,77.26
2023-04-17T17:21:28.482Z,77.32
2023-04-17T17:24:01.508Z,77.45
2023-04-17T17:26:34.829Z,77.66
2023-04-17T17:29:07.440Z,77.61
2023-04-17T17:31:39.362Z,77.87
2023-04-17T17:37:04.957Z,77.87
2023-04-17T17:39:37.891Z,77.79
2023-04-17T17:42:09.907Z,78.03
2023-04-17T17:44:43.905Z,78.03
2023-04-17T17:47:17.280Z,78.16
2023-04-17T17:49:49.493Z,78.03
2023-04-17T17:52:20.770Z,78.27
2023-04-17T17:54:52.933Z,78.27
2023-04-17T17:57:35.692Z,78.34
2023-04-17T18:00:22.056Z,78.41
2023-04-17T18:02:55.406Z,78.67
2023-04-17T18:05:27.674Z,78.68
2023-04-17T18:08:02.204Z,78.74
2023-04-17T18:10:33.723Z,78.73
2023-04-17T18:13:06.712Z,79.12
2023-04-17T18:15:44.930Z,79.30
2023-04-17T18:18:17.598Z,79.57
2023-04-17T18:20:49.520Z,79.97
2023-04-17T18:23:23.261Z,79.94
2023-04-17T18:26:02.735Z,79.97
2023-04-17T18:28:35.903Z,80.25
2023-04-17T18:31:09.013Z,80.22
2023-04-17T18:33:41.447Z,80.45
2023-04-17T18:36:14.558Z,80.46
2023-04-17T18:38:49.133Z,80.26
2023-04-17T18:41:23.388Z,80.15
2023-04-17T18:43:55.479Z,80.19
2023-04-17T18:46:30.633Z,80.27
2023-04-17T18:49:06.139Z,80.36
2023-04-17T18:51:41.527Z,80.44
2023-04-17T18:54:15.353Z,80.53
2023-04-17T18:56:49.159Z,80.59
2023-04-17T18:59:25.605Z,80.73
2023-04-17T19:01:57.419Z,80.81
2023-04-17T19:04:31.659Z,80.78
2023-04-17T19:07:05.665Z,81.07
2023-04-17T19:09:39.613Z,81.13
2023-04-17T19:12:13.461Z,81.43
2023-04-17T19:14:45.270Z,81.43
2023-04-17T19:17:18.089Z,81.93
2023-04-17T19:19:49.643Z,81.91
2023-04-17T19:22:21.277Z,81.88
2023-04-17T19:24:53.307Z,82.16
2023-04-17T19:27:27.349Z,82.30
2023-04-17T19:30:00.417Z,82.37
2023-04-17T19:32:33.580Z,82.56
2023-04-17T19:35:05.656Z,82.70
2023-04-17T19:37:37.949Z,82.85
2023-04-17T19:40:24.208Z,82.98
2023-04-17T19:43:01.312Z,82.93
2023-04-17T19:45:33.846Z,83.12
2023-04-17T19:48:06.949Z,83.14
2023-04-17T19:50:38.297Z,83.01
2023-04-17T19:53:12.078Z,82.90
2023-04-17T19:55:43.003Z,83.02
2023-04-17T19:58:16.266Z,83.04
2023-04-17T20:00:48.962Z,83.05
2023-04-17T20:03:20.276Z,83.02
2023-04-17T20:05:53.060Z,83.12
2023-04-17T20:08:25.990Z,83.31
2023-04-17T20:10:58.151Z,83.24
2023-04-17T20:13:29.568Z,83.16
2023-04-17T20:16:02.262Z,83.28
2023-04-17T20:18:34.406Z,83.03
2023-04-17T20:21:06.700Z,83.24
2023-04-17T20:23:40.174Z,83.07
2023-04-17T20:26:13.722Z,82.95
2023-04-17T20:28:45.421Z,83.01
2023-04-17T20:31:19.011Z,82.84
2023-04-17T20:33:50.795Z,82.85
2023-04-17T20:36:24.196Z,82.80
2023-04-17T20:38:57.502Z,82.66
2023-04-17T20:41:32.180Z,82.58
2023-04-17T20:44:04.861Z,82.57
2023-04-17T20:46:39.495Z,82.43
2023-04-17T20:49:12.387Z,82.50
2023-04-17T20:51:45.169Z,82.48
2023-04-17T20:54:17.329Z,82.53
2023-04-17T20:56:49.934Z,82.52
2023-04-17T20:59:22.734Z,82.47
2023-04-17T21:01:54.756Z,82.57
2023-04-17T21:04:26.166Z,82.48
2023-04-17T21:06:58.486Z,82.45
2023-04-17T21:09:29.956Z,82.57
2023-04-17T21:12:01.673Z,82.55
2023-04-17T21:14:35.567Z,82.57
2023-04-17T21:17:07.267Z,82.49
2023-04-17T21:19:38.931Z,82.67
2023-04-17T21:22:18.070Z,82.49
2023-04-17T21:24:51.459Z,82.57
2023-04-17T21:27:22.589Z,82.66
2023-04-17T21:29:54.820Z,82.72
2023-04-17T21:32:27.503Z,82.96
2023-04-17T21:35:11.371Z,82.97
2023-04-17T21:37:45.928Z,83.07
2023-04-17T21:40:18.163Z,83.43
2023-04-17T21:42:50.881Z,83.47
2023-04-17T21:45:21.815Z,83.75
2023-04-17T21:47:53.450Z,83.94
2023-04-17T21:50:27.540Z,83.97
2023-04-17T21:53:01.717Z,84.06
2023-04-17T21:55:34.125Z,83.92
2023-04-17T21:58:05.931Z,84.03
2023-04-17T22:00:38.454Z,83.96
2023-04-17T22:03:11.108Z,83.92
2023-04-17T22:05:44.336Z,83.99
2023-04-17T22:08:17.183Z,83.93
2023-04-17T22:10:49.565Z,83.85
2023-04-17T22:13:23.811Z,84.08
2023-04-17T22:16:01.273Z,84.08
2023-04-17T22:18:33.074Z,84.17
2023-04-17T22:21:06.182Z,84.24
2023-04-17T22:23:39.747Z,84.35
2023-04-17T22:26:12.913Z,84.35
2023-04-17T22:28:44.997Z,84.38
2023-04-17T22:31:17.306Z,84.49
2023-04-17T22:33:50.085Z,84.66
2023-04-17T22:36:21.733Z,84.50
2023-04-17T22:38:54.537Z,84.63
2023-04-17T22:41:27.442Z,84.64
2023-04-17T22:44:00.026Z,84.64
2023-04-17T22:46:31.602Z,84.61
2023-04-17T22:49:06.579Z,84.64
2023-04-17T22:51:38.709Z,84.78
2023-04-17T22:54:22.098Z,84.61
2023-04-17T22:56:54.652Z,84.69
2023-04-17T22:59:28.678Z,84.76
2023-04-17T23:02:00.150Z,84.72
2023-04-17T23:04:33.166Z,84.75
2023-04-17T23:07:06.659Z,85.06
2023-04-17T23:09:39.141Z,85.11
2023-04-17T23:12:11.439Z,85.04
2023-04-17T23:14:46.059Z,85.10
2023-04-17T23:17:17.902Z,85.16
2023-04-17T23:19:50.644Z,85.34
2023-04-17T23:22:22.560Z,85.45
2023-04-17T23:24:55.125Z,85.32
2023-04-17T23:27:27.925Z,85.38
2023-04-17T23:30:01.779Z,85.33
2023-04-17T23:32:34.672Z,85.49
2023-04-17T23:35:15.006Z,85.31
2023-04-17T23:37:48.286Z,85.29
2023-04-17T23:40:23.800Z,85.53
2023-04-17T23:42:55.266Z,85.45
2023-04-17T23:45:26.183Z,85.49
2023-04-17T23:48:00.902Z,85.42
2023-04-17T23:50:32.846Z,85.52
2023-04-17T23:53:09.751Z,85.56
2023-04-17T23:55:46.486Z,85.54
2023-04-17T23:58:18.842Z,85.71
